Time;durP1;ratioP1;P1;durP2;ratioP2;P2;SDS_P1;SDS_P2;PMS_P1;PMS_P2;Temp;Humidity;BMP_temperature;BMP_pressure;BME280_temperature;BME280_humidity;BME280_pressure;Samples;Min_cycle;Max_cycle;Signal;HPM_P1;HPM_P2
2022/05/28 00:01:31;;;;;;;7.07;2.17;;;8.00;99.90;;;;;;5011939;28;20037;-46
2022/05/28 00:03:59;;;;;;;14.57;2.80;;;8.10;99.90;;;;;;5010644;28;20531;-48
2022/05/28 00:06:28;;;;;;;6.57;1.90;;;8.10;99.90;;;;;;5011992;28;20018;-51
2022/05/28 00:08:56;;;;;;;6.28;1.65;;;8.10;99.90;;;;;;5011714;28;20022;-47
2022/05/28 00:11:26;;;;;;;6.32;1.80;;;8.00;99.90;;;;;;5010410;28;20114;-47
2022/05/28 00:13:52;;;;;;;11.10;1.80;;;8.00;99.90;;;;;;5011035;28;20030;-47
2022/05/28 00:16:19;;;;;;;5.43;1.77;;;7.80;99.90;;;;;;4994564;28;20049;-48
2022/05/28 00:18:45;;;;;;;6.13;1.65;;;7.80;99.90;;;;;;5012051;28;20022;-47
2022/05/28 00:21:13;;;;;;;7.30;1.83;;;7.80;99.90;;;;;;5011565;28;20041;-47
2022/05/28 00:23:40;;;;;;;7.22;1.85;;;7.70;99.90;;;;;;5011776;28;20148;-48
2022/05/28 00:26:06;;;;;;;3.78;1.42;;;7.70;99.90;;;;;;5011765;28;20068;-49
2022/05/28 00:28:33;;;;;;;6.53;2.55;;;7.60;99.90;;;;;;5010427;28;20041;-47
2022/05/28 00:31:00;;;;;;;6.63;1.70;;;7.60;99.90;;;;;;5011619;28;20029;-48
2022/05/28 00:33:27;;;;;;;7.13;2.17;;;7.60;99.90;;;;;;5011200;28;20028;-49
2022/05/28 00:35:53;;;;;;;5.90;1.10;;;7.60;99.90;;;;;;5011520;28;20468;-47
2022/05/28 00:38:19;;;;;;;4.47;1.45;;;7.70;99.90;;;;;;5011566;28;20026;-48
2022/05/28 00:40:47;;;;;;;5.05;1.35;;;7.70;99.90;;;;;;5011462;28;20472;-48
2022/05/28 00:43:12;;;;;;;3.97;1.63;;;7.70;99.90;;;;;;5011041;28;20032;-49
2022/05/28 00:45:39;;;;;;;6.03;1.98;;;7.70;99.90;;;;;;5011190;28;20026;-48
2022/05/28 01:50:10;;;;;;;4.15;1.40;;;7.40;99.90;;;;;;5023735;28;20032;-47
2022/05/28 01:52:36;;;;;;;4.00;1.85;;;7.40;99.90;;;;;;5028145;28;20214;-48
2022/05/28 01:55:02;;;;;;;6.97;1.50;;;7.40;99.90;;;;;;5028509;28;20044;-47
2022/05/28 01:57:29;;;;;;;3.42;1.35;;;7.40;99.90;;;;;;5030336;28;20029;-47
2022/05/28 01:59:54;;;;;;;5.57;1.45;;;7.50;99.90;;;;;;5028482;28;20021;-47
2022/05/28 02:02:20;;;;;;;3.22;1.55;;;7.50;99.90;;;;;;5029342;28;20021;-47
2022/05/28 02:04:47;;;;;;;7.43;1.73;;;7.50;99.90;;;;;;5028679;28;20118;-47
2022/05/28 02:07:14;;;;;;;5.55;2.00;;;7.50;99.90;;;;;;5011199;28;20488;-47
2022/05/28 02:09:48;;;;;;;7.93;2.17;;;7.50;99.90;;;;;;5029409;28;20553;-47
2022/05/28 02:12:19;;;;;;;11.07;2.33;;;7.50;99.90;;;;;;5027903;28;20013;-48
2022/05/28 02:15:05;;;;;;;7.28;2.15;;;7.60;99.90;;;;;;5029658;28;20045;-47
2022/05/28 02:17:52;;;;;;;6.87;1.83;;;7.60;99.90;;;;;;5023719;28;20025;-52
2022/05/28 02:20:37;;;;;;;6.15;1.55;;;7.60;99.90;;;;;;5029277;28;20270;-46
2022/05/28 02:23:16;;;;;;;5.53;1.50;;;7.60;99.90;;;;;;5011960;28;20037;-48
2022/05/28 02:25:47;;;;;;;2.83;1.30;;;7.60;99.90;;;;;;5029126;28;20407;-47
2022/05/28 02:28:15;;;;;;;9.13;2.03;;;7.60;99.90;;;;;;5027933;28;20056;-47
2022/05/28 02:30:47;;;;;;;3.05;1.35;;;7.60;99.90;;;;;;5029423;28;20476;-52
2022/05/28 02:33:12;;;;;;;9.48;2.05;;;7.60;99.90;;;;;;5029101;28;20029;-47
2022/05/28 02:35:38;;;;;;;7.38;1.58;;;7.60;99.90;;;;;;5029288;28;20026;-46
2022/05/28 02:38:03;;;;;;;9.68;1.85;;;7.60;99.90;;;;;;5029490;28;20060;-47
2022/05/28 02:40:29;;;;;;;9.18;1.67;;;7.60;99.90;;;;;;5029316;28;20057;-48
2022/05/28 02:42:54;;;;;;;11.38;2.65;;;7.60;99.90;;;;;;5028716;28;20112;-46
2022/05/28 02:45:20;;;;;;;7.57;1.70;;;7.50;99.90;;;;;;5029206;28;20069;-47
2022/05/28 02:47:46;;;;;;;6.28;1.33;;;7.50;99.90;;;;;;5011638;28;20025;-46
2022/05/28 02:50:12;;;;;;;9.35;1.65;;;7.60;99.90;;;;;;5029219;28;20029;-47
2022/05/28 02:52:38;;;;;;;5.70;1.42;;;7.50;99.90;;;;;;5011053;28;20083;-48
2022/05/28 02:55:04;;;;;;;6.47;1.73;;;7.50;99.90;;;;;;5058834;22;20045;-42
2022/05/28 02:57:30;;;;;;;2.13;1.08;;;7.50;99.90;;;;;;5048594;28;20032;-43
2022/05/28 02:59:56;;;;;;;8.02;1.80;;;7.50;99.90;;;;;;5048939;28;20029;-45
2022/05/28 03:02:22;;;;;;;6.38;1.48;;;7.40;99.90;;;;;;5031216;28;20530;-45
2022/05/28 03:04:48;;;;;;;6.90;2.03;;;7.40;99.90;;;;;;5048851;28;20067;-44
2022/05/28 03:07:14;;;;;;;2.47;1.40;;;7.40;99.90;;;;;;5048719;28;20547;-42
2022/05/28 03:09:39;;;;;;;5.35;1.98;;;7.40;99.90;;;;;;5048917;28;20021;-42
2022/05/28 03:12:05;;;;;;;3.72;1.48;;;7.30;99.90;;;;;;5047773;28;20441;-43
2022/05/28 03:14:31;;;;;;;3.58;1.45;;;7.30;99.90;;;;;;5048692;28;20024;-42
2022/05/28 03:16:56;;;;;;;9.00;1.60;;;7.30;99.90;;;;;;5051323;28;20032;-42
2022/05/28 03:19:22;;;;;;;3.33;1.70;;;7.30;99.90;;;;;;5052454;28;20025;-43
2022/05/28 03:21:48;;;;;;;4.57;1.55;;;7.30;99.90;;;;;;5052338;28;20031;-43
2022/05/28 03:24:13;;;;;;;4.25;0.98;;;7.30;99.90;;;;;;5052085;28;20040;-42
2022/05/28 03:26:39;;;;;;;6.72;1.40;;;7.30;99.90;;;;;;5052279;28;20021;-42
2022/05/28 03:29:05;;;;;;;6.18;1.83;;;7.30;99.90;;;;;;5051909;28;20036;-42
2022/05/28 03:31:31;;;;;;;7.03;1.80;;;7.30;99.90;;;;;;5052030;28;20013;-42
2022/05/28 03:33:57;;;;;;;7.40;2.17;;;7.30;99.90;;;;;;5034414;28;20029;-44
2022/05/28 03:36:25;;;;;;;5.45;2.03;;;7.40;99.90;;;;;;5051962;28;20364;-42
2022/05/28 03:38:51;;;;;;;4.00;1.50;;;7.40;99.90;;;;;;5052196;28;20320;-42
2022/05/28 03:41:17;;;;;;;6.68;1.60;;;7.40;99.90;;;;;;5051918;28;20031;-44
2022/05/28 03:43:43;;;;;;;6.50;2.05;;;7.40;99.90;;;;;;5052285;28;20016;-42
2022/05/28 03:46:27;;;;;;;5.00;1.83;;;7.40;99.90;;;;;;5052006;28;20036;-42
2022/05/28 03:49:00;;;;;;;7.25;1.88;;;7.40;99.90;;;;;;5052005;28;20111;-43
2022/05/28 03:51:26;;;;;;;7.05;1.88;;;7.40;99.90;;;;;;5051474;28;20051;-42
2022/05/28 03:53:51;;;;;;;7.50;2.28;;;7.40;99.90;;;;;;5051493;28;20059;-41
2022/05/28 03:56:19;;;;;;;10.25;2.40;;;7.40;99.90;;;;;;5051199;28;20570;-43
2022/05/28 03:58:44;;;;;;;3.60;1.65;;;7.40;99.90;;;;;;5051253;28;20174;-42
2022/05/28 04:01:10;;;;;;;6.53;2.00;;;7.40;99.90;;;;;;5050852;28;20033;-42
2022/05/28 04:03:36;;;;;;;7.10;1.65;;;7.40;99.90;;;;;;5033063;28;20029;-43
2022/05/28 04:06:03;;;;;;;6.07;2.13;;;7.40;99.90;;;;;;5051288;28;20056;-42
2022/05/28 04:08:29;;;;;;;5.93;2.10;;;7.40;99.90;;;;;;5051223;28;20475;-42
2022/05/28 04:10:54;;;;;;;9.45;2.20;;;7.50;99.90;;;;;;5050033;28;20059;-42
2022/05/28 04:13:20;;;;;;;6.15;1.98;;;7.50;99.90;;;;;;5050926;28;20017;-43
2022/05/28 04:15:48;;;;;;;11.77;2.60;;;7.60;99.90;;;;;;5051135;28;20344;-43
2022/05/28 04:18:14;;;;;;;6.10;1.85;;;7.70;99.90;;;;;;5043481;28;20092;-42
2022/05/28 04:20:40;;;;;;;16.27;2.88;;;7.70;99.90;;;;;;5051129;28;20025;-42
2022/05/28 04:23:05;;;;;;;10.93;2.35;;;7.80;99.90;;;;;;5051099;28;20441;-42
2022/05/28 04:25:31;;;;;;;8.80;2.42;;;7.80;99.90;;;;;;5032806;28;20029;-43
2022/05/28 04:27:57;;;;;;;7.82;3.28;;;7.90;99.90;;;;;;5050030;28;20082;-45
2022/05/28 04:30:23;;;;;;;11.77;3.28;;;7.90;99.90;;;;;;5050893;28;20013;-46
2022/05/28 04:32:48;;;;;;;8.40;2.80;;;7.90;99.90;;;;;;5050442;28;20488;-44
2022/05/28 04:35:14;;;;;;;6.82;1.95;;;8.00;99.90;;;;;;5050843;28;20025;-43
2022/05/28 04:37:40;;;;;;;9.80;2.53;;;8.00;99.90;;;;;;5050366;28;20025;-43
2022/05/28 04:40:07;;;;;;;7.57;2.58;;;8.10;99.90;;;;;;5050747;28;20063;-44
2022/05/28 04:42:33;;;;;;;10.77;2.70;;;8.10;99.90;;;;;;5050194;28;20025;-45
2022/05/28 04:44:58;;;;;;;11.45;4.00;;;8.10;99.90;;;;;;5050552;28;20033;-45
2022/05/28 04:47:24;;;;;;;12.93;2.60;;;8.10;99.90;;;;;;5050677;28;20045;-42
2022/05/28 04:49:50;;;;;;;8.70;2.80;;;8.20;99.90;;;;;;5047253;28;20498;-43
2022/05/28 04:52:16;;;;;;;9.65;2.55;;;8.20;99.90;;;;;;5050086;28;20059;-43
2022/05/28 04:54:41;;;;;;;7.57;2.15;;;8.30;99.90;;;;;;5050280;28;20084;-42
2022/05/28 04:57:07;;;;;;;8.05;2.45;;;8.30;99.90;;;;;;5051128;28;20029;-45
2022/05/28 04:59:32;;;;;;;6.63;2.50;;;8.30;99.90;;;;;;5050530;28;20140;-44
2022/05/28 05:01:58;;;;;;;13.23;3.22;;;8.40;99.90;;;;;;5032366;28;20045;-43
2022/05/28 05:04:24;;;;;;;5.90;2.50;;;8.50;99.90;;;;;;5050308;28;20025;-43
2022/05/28 05:06:49;;;;;;;7.57;2.65;;;8.50;99.90;;;;;;5049871;28;20096;-44
2022/05/28 05:09:15;;;;;;;7.22;1.85;;;8.60;99.90;;;;;;5049800;28;20021;-43
2022/05/28 05:11:41;;;;;;;6.47;2.15;;;8.70;99.90;;;;;;5048708;28;20079;-42
2022/05/28 05:14:06;;;;;;;9.60;2.75;;;8.70;99.90;;;;;;5049660;28;20021;-43
2022/05/28 05:16:32;;;;;;;8.98;2.75;;;8.80;99.90;;;;;;5050234;28;20475;-44
2022/05/28 05:18:57;;;;;;;10.88;2.53;;;8.80;99.90;;;;;;5049606;28;20021;-43
2022/05/28 05:21:23;;;;;;;9.05;2.28;;;8.80;99.90;;;;;;5049537;28;20090;-43
2022/05/28 05:23:48;;;;;;;6.57;1.95;;;8.80;99.90;;;;;;5049489;28;20124;-43
2022/05/28 05:26:19;;;;;;;8.43;2.80;;;8.80;99.90;;;;;;5041663;28;20553;-43
2022/05/28 05:28:45;;;;;;;9.02;2.63;;;8.80;99.90;;;;;;5031724;28;20112;-43
2022/05/28 05:31:12;;;;;;;4.10;2.08;;;8.80;99.90;;;;;;5049311;28;20104;-44
2022/05/28 05:33:37;;;;;;;9.55;2.35;;;8.90;99.90;;;;;;5050028;28;20140;-44
2022/05/28 05:36:03;;;;;;;10.35;2.92;;;9.00;99.90;;;;;;5049758;28;20522;-46
2022/05/28 05:38:29;;;;;;;11.85;3.22;;;9.00;99.90;;;;;;5031511;28;20021;-43
2022/05/28 05:40:54;;;;;;;6.28;2.38;;;9.10;99.90;;;;;;5049344;28;20155;-42
2022/05/28 05:43:20;;;;;;;13.52;2.55;;;9.20;99.90;;;;;;5049372;28;20119;-42
2022/05/28 05:45:57;;;;;;;9.00;2.08;;;9.40;99.90;;;;;;5049367;28;20025;-42
2022/05/28 05:48:23;;;;;;;10.20;2.58;;;9.70;99.90;;;;;;5042625;28;20017;-44
2022/05/28 05:50:49;;;;;;;11.48;2.67;;;9.80;99.90;;;;;;5049340;28;20021;-44
2022/05/28 05:53:16;;;;;;;8.88;2.70;;;10.10;99.90;;;;;;5041428;28;20021;-44
2022/05/28 05:55:43;;;;;;;4.63;1.92;;;10.10;99.90;;;;;;5048935;28;20099;-43
2022/05/28 05:58:08;;;;;;;8.63;2.05;;;10.20;99.90;;;;;;5049294;28;20021;-46
2022/05/28 06:00:34;;;;;;;4.13;2.08;;;10.30;99.90;;;;;;5049492;28;20074;-43
2022/05/28 06:03:00;;;;;;;3.72;1.80;;;10.50;99.90;;;;;;5048970;28;20446;-45
2022/05/28 06:05:25;;;;;;;9.50;2.30;;;10.70;99.90;;;;;;5049300;28;20096;-45
2022/05/28 06:07:51;;;;;;;5.85;2.25;;;10.80;99.90;;;;;;5049393;28;20033;-43
2022/05/28 06:10:17;;;;;;;12.55;2.80;;;10.90;99.90;;;;;;5049371;28;20028;-44
2022/05/28 06:12:42;;;;;;;5.60;1.80;;;10.90;99.90;;;;;;5048787;28;20036;-43
2022/05/28 06:15:09;;;;;;;4.28;1.63;;;11.10;99.90;;;;;;5049263;28;20111;-44
2022/05/28 06:17:35;;;;;;;5.13;2.30;;;11.20;99.90;;;;;;5049539;28;20017;-43
2022/05/28 06:20:06;;;;;;;10.30;2.25;;;11.40;99.90;;;;;;5049005;28;20151;-45
2022/05/28 06:22:32;;;;;;;10.88;2.70;;;11.60;99.90;;;;;;5049243;28;20021;-43
2022/05/28 06:24:57;;;;;;;7.47;2.08;;;11.70;99.90;;;;;;5048984;28;20032;-43
2022/05/28 06:27:23;;;;;;;16.00;2.08;;;11.70;99.90;;;;;;5049038;28;20017;-46
2022/05/28 06:29:48;;;;;;;12.63;2.15;;;11.80;99.90;;;;;;5049075;28;20021;-44
2022/05/28 06:32:14;;;;;;;12.18;3.63;;;12.00;99.90;;;;;;5043835;28;20025;-48
2022/05/28 06:34:40;;;;;;;12.45;2.55;;;12.00;99.90;;;;;;5049079;28;20024;-44
2022/05/28 06:37:09;;;;;;;6.63;2.03;;;12.10;99.90;;;;;;5049300;28;20151;-45
2022/05/28 06:39:36;;;;;;;11.65;2.30;;;12.30;99.90;;;;;;5049445;28;20028;-43
2022/05/28 06:42:03;;;;;;;8.55;2.53;;;12.20;99.90;;;;;;5048897;28;20045;-43
2022/05/28 06:44:29;;;;;;;8.23;1.85;;;12.20;99.90;;;;;;5048389;28;20041;-44
2022/05/28 06:46:54;;;;;;;7.40;1.70;;;12.20;99.90;;;;;;5049016;28;20092;-44
2022/05/28 06:49:20;;;;;;;7.70;2.25;;;12.30;99.90;;;;;;5049117;28;20025;-43
2022/05/28 06:51:47;;;;;;;10.07;2.28;;;12.40;99.90;;;;;;5051176;28;20100;-45
2022/05/28 06:54:12;;;;;;;8.02;2.40;;;12.50;99.90;;;;;;5053169;28;20041;-50
2022/05/28 06:56:38;;;;;;;9.52;2.05;;;12.70;99.90;;;;;;5053042;28;20068;-44
2022/05/28 06:59:04;;;;;;;8.60;2.17;;;12.90;99.90;;;;;;5053025;28;20028;-43
2022/05/28 07:01:29;;;;;;;8.60;2.13;;;13.10;99.90;;;;;;5052494;28;20037;-44
2022/05/28 07:03:55;;;;;;;9.73;2.05;;;13.30;99.90;;;;;;5052495;28;20037;-48
2022/05/28 07:06:21;;;;;;;9.02;2.05;;;13.50;99.90;;;;;;5052771;28;20031;-43
2022/05/28 07:08:46;;;;;;;9.95;2.35;;;13.60;99.90;;;;;;5052497;28;20108;-43
2022/05/28 07:11:12;;;;;;;9.43;2.05;;;13.70;99.90;;;;;;5052119;28;20494;-44
2022/05/28 07:13:39;;;;;;;7.75;2.40;;;13.70;99.90;;;;;;5052389;28;20048;-44
2022/05/28 07:16:06;;;;;;;14.90;2.50;;;13.60;99.90;;;;;;5052286;28;20109;-45
2022/05/28 07:18:36;;;;;;;11.32;1.52;;;13.50;99.90;;;;;;5052548;28;20017;-46
2022/05/28 07:21:02;;;;;;;14.45;3.17;;;13.50;99.90;;;;;;5052114;28;20025;-45
2022/05/28 07:23:29;;;;;;;9.77;2.55;;;13.60;99.90;;;;;;5052539;28;20029;-44
2022/05/28 07:26:00;;;;;;;11.90;2.80;;;13.50;99.90;;;;;;5051882;28;20025;-44
2022/05/28 07:28:27;;;;;;;10.63;3.63;;;13.50;99.90;;;;;;5052293;28;20021;-46
2022/05/28 07:31:03;;;;;;;7.25;1.73;;;13.60;99.90;;;;;;5052279;28;20023;-46
2022/05/28 07:33:31;;;;;;;8.48;2.28;;;14.10;99.90;;;;;;5051765;28;20013;-45
2022/05/28 07:35:58;;;;;;;7.32;2.53;;;14.40;99.90;;;;;;5052083;28;20025;-44
2022/05/28 07:38:25;;;;;;;13.10;3.17;;;14.40;99.90;;;;;;5052276;28;20017;-45
2022/05/28 07:40:52;;;;;;;14.05;2.78;;;14.10;99.90;;;;;;5051884;28;20071;-45
2022/05/28 07:43:18;;;;;;;14.00;2.83;;;13.80;99.90;;;;;;5051690;28;20087;-45
2022/05/28 07:45:45;;;;;;;9.02;2.72;;;13.50;99.90;;;;;;5051736;28;20026;-45
2022/05/28 07:48:12;;;;;;;11.02;2.47;;;13.10;99.90;;;;;;5051754;28;20535;-45
2022/05/28 07:50:39;;;;;;;8.00;2.13;;;12.80;99.90;;;;;;5051669;28;20545;-45
2022/05/28 07:53:04;;;;;;;12.43;2.25;;;12.90;99.90;;;;;;5051227;28;20021;-46
2022/05/28 07:55:30;;;;;;;10.65;2.72;;;12.90;99.90;;;;;;5051320;28;20455;-47
2022/05/28 07:57:56;;;;;;;5.45;2.72;;;12.80;99.90;;;;;;5051621;28;20037;-45
2022/05/28 08:00:22;;;;;;;9.98;2.40;;;12.90;99.90;;;;;;5051680;28;20021;-45
2022/05/28 08:02:48;;;;;;;12.32;2.75;;;13.20;99.90;;;;;;5050130;28;20025;-45
2022/05/28 08:05:14;;;;;;;9.18;2.53;;;13.60;99.90;;;;;;5048400;28;20025;-45
2022/05/28 08:07:40;;;;;;;10.82;2.50;;;14.00;99.90;;;;;;5052018;28;20357;-45
2022/05/28 08:10:06;;;;;;;9.13;2.22;;;14.30;99.90;;;;;;5051484;28;20024;-48
2022/05/28 08:12:31;;;;;;;8.18;2.25;;;14.40;99.90;;;;;;5051222;28;20386;-48
2022/05/28 08:14:58;;;;;;;14.90;2.90;;;14.70;99.90;;;;;;5051233;28;20111;-46
2022/05/28 08:17:24;;;;;;;6.85;2.00;;;15.00;99.90;;;;;;5051495;28;20383;-46
2022/05/28 08:19:51;;;;;;;9.55;2.95;;;15.00;99.90;;;;;;5050969;28;20029;-45
2022/05/28 08:25:14;;;;;;;4.38;1.70;;;14.40;99.90;;;;;;5033950;28;20395;-45
2022/05/28 08:27:40;;;;;;;6.53;2.05;;;13.50;99.90;;;;;;5033110;28;20029;-46
2022/05/28 08:30:06;;;;;;;9.68;2.55;;;12.90;99.90;;;;;;5050801;28;20563;-44
2022/05/28 08:32:32;;;;;;;9.45;1.80;;;12.70;99.90;;;;;;5050730;28;20021;-44
2022/05/28 08:34:57;;;;;;;7.28;2.28;;;12.50;99.90;;;;;;5050744;28;20021;-46
2022/05/28 08:37:23;;;;;;;8.80;2.42;;;12.50;99.90;;;;;;5050980;28;20016;-44
2022/05/28 08:39:48;;;;;;;4.47;2.08;;;12.50;99.90;;;;;;5051072;28;20025;-44
2022/05/28 08:42:14;;;;;;;6.63;2.17;;;12.90;99.90;;;;;;5050723;28;20112;-44
2022/05/28 08:44:41;;;;;;;11.88;2.50;;;13.50;99.90;;;;;;5050681;28;20521;-46
2022/05/28 08:47:13;;;;;;;12.77;1.92;;;13.90;99.90;;;;;;5051232;28;20104;-51
2022/05/28 08:49:38;;;;;;;5.47;1.45;;;14.10;99.90;;;;;;5050842;28;20032;-44
2022/05/28 08:52:10;;;;;;;8.30;2.05;;;13.90;99.90;;;;;;5050183;28;20021;-48
2022/05/28 08:54:56;;;;;;;5.68;1.92;;;13.60;99.90;;;;;;5050498;28;20025;-45
2022/05/28 08:57:26;;;;;;;;;;;13.40;99.90;;;;;;5129677;22;20037;-48
2022/05/28 08:59:59;;;;;;;3.75;1.60;;;13.30;99.90;;;;;;5050453;28;19912;-48
2022/05/28 09:02:39;;;;;;;6.82;2.03;;;13.50;99.90;;;;;;5050391;28;20078;-49
2022/05/28 09:05:27;;;;;;;11.23;2.28;;;13.80;99.90;;;;;;5050003;28;20124;-57
2022/05/28 09:07:57;;;;;;;8.82;2.20;;;14.00;99.90;;;;;;5049488;28;20090;-49
2022/05/28 09:10:23;;;;;;;6.13;2.15;;;14.20;99.90;;;;;;5050450;28;20021;-50
2022/05/28 09:13:01;;;;;;;6.97;1.90;;;14.50;99.90;;;;;;5050184;28;20021;-50
2022/05/28 09:15:26;;;;;;;9.00;2.25;;;14.40;99.90;;;;;;5050054;28;20498;-50
2022/05/28 09:17:56;;;;;;;7.25;1.58;;;14.20;99.90;;;;;;5050394;28;20025;-49
2022/05/28 09:20:28;;;;;;;10.27;2.25;;;13.80;99.90;;;;;;5049850;28;20017;-51
2022/05/28 09:22:55;;;;;;;10.38;2.63;;;13.50;99.90;;;;;;5032306;28;20482;-49
2022/05/28 09:25:24;;;;;;;5.57;1.20;;;13.20;99.90;;;;;;5050355;28;20422;-50
2022/05/28 09:28:18;;;;;;;4.82;1.83;;;13.20;99.90;;;;;;5050236;28;20029;-49
2022/05/28 09:31:03;;;;;;;8.38;1.92;;;13.10;99.90;;;;;;5050068;28;20530;-47
2022/05/28 09:33:55;;;;;;;8.43;1.95;;;13.10;99.90;;;;;;5043366;28;20364;-50
2022/05/28 09:36:26;;;;;;;15.45;1.95;;;13.00;99.90;;;;;;5018631;28;20043;-52
2022/05/28 09:39:27;;;;;;;9.88;1.50;;;13.00;99.90;;;;;;5049617;28;20592;-49
2022/05/28 09:41:57;;;;;;;8.98;2.47;;;13.00;99.90;;;;;;4978593;28;20046;-48
2022/05/28 09:44:43;;;;;;;7.93;1.80;;;13.10;99.90;;;;;;5031565;28;20021;-48
2022/05/28 09:47:16;;;;;;;7.15;2.25;;;13.20;99.90;;;;;;5033837;28;20017;-49
2022/05/28 09:49:53;;;;;;;8.73;1.80;;;13.50;99.90;;;;;;5049602;28;20036;-48
2022/05/28 09:52:29;;;;;;;8.13;2.00;;;13.80;99.90;;;;;;5041439;28;20017;-48
2022/05/28 09:55:19;;;;;;;8.60;2.08;;;14.00;99.90;;;;;;5049553;28;20108;-49
2022/05/28 09:58:05;;;;;;;7.45;1.88;;;13.90;99.90;;;;;;5049308;28;20041;-51
2022/05/28 10:00:31;;;;;;;4.97;1.52;;;13.80;99.90;;;;;;5043609;28;20029;-49
2022/05/28 10:05:53;;;;;;;10.00;2.58;;;13.70;99.90;;;;;;5045685;28;20048;-48
2022/05/28 10:08:19;;;;;;;11.23;2.45;;;13.50;99.90;;;;;;5043448;28;20074;-49
2022/05/28 10:10:54;;;;;;;7.97;2.00;;;13.30;99.90;;;;;;5049247;28;20025;-50
2022/05/28 10:13:24;;;;;;;7.70;1.98;;;13.20;99.90;;;;;;5043313;28;20039;-48
2022/05/28 10:15:57;;;;;;;8.43;1.65;;;13.10;99.90;;;;;;5031832;28;20033;-51
2022/05/28 10:18:31;;;;;;;8.52;2.45;;;13.20;99.90;;;;;;5049389;28;20036;-52
2022/05/28 10:21:26;;;;;;;11.13;1.83;;;13.20;99.90;;;;;;5046843;28;20047;-48
2022/05/28 10:23:54;;;;;;;8.55;1.85;;;13.30;99.90;;;;;;5041888;28;20127;-51
2022/05/28 10:26:29;;;;;;;11.45;1.83;;;13.50;99.90;;;;;;5051130;28;20017;-51
2022/05/28 10:29:06;;;;;;;7.30;2.15;;;13.50;99.90;;;;;;5035814;28;20016;-47
2022/05/28 10:31:36;;;;;;;5.85;1.92;;;13.60;99.90;;;;;;5035096;28;20024;-51
2022/05/28 10:34:03;;;;;;;11.32;1.80;;;14.00;99.90;;;;;;5053107;28;20055;-49
2022/05/28 10:36:32;;;;;;;4.13;1.33;;;14.10;99.90;;;;;;5053283;28;20036;-50
2022/05/28 10:39:16;;;;;;;6.45;1.27;;;14.00;99.90;;;;;;5053304;28;20021;-47
2022/05/28 10:41:43;;;;;;;8.52;2.22;;;14.10;99.90;;;;;;5053193;28;20092;-51
2022/05/28 10:44:12;;;;;;;8.40;1.83;;;14.20;99.90;;;;;;5052942;28;20087;-48
2022/05/28 10:46:44;;;;;;;9.00;1.52;;;14.20;99.90;;;;;;5052825;28;20009;-51
2022/05/28 10:49:47;;;;;;;7.60;2.15;;;14.20;99.90;;;;;;5053159;28;20028;-46
2022/05/28 10:52:31;;;;;;;6.22;2.00;;;14.00;99.90;;;;;;5052481;28;20483;-47
2022/05/28 10:55:09;;;;;;;6.32;1.88;;;13.80;99.90;;;;;;5035093;28;20055;-48
2022/05/28 10:57:53;;;;;;;6.63;1.77;;;13.70;99.90;;;;;;5053197;28;20529;-53
2022/05/28 11:00:52;;;;;;;8.23;2.03;;;13.70;99.90;;;;;;5045543;28;20017;-48
2022/05/28 11:03:33;;;;;;;7.00;2.15;;;13.80;99.90;;;;;;5050938;28;20105;-51
2022/05/28 11:06:32;;;;;;;6.07;1.77;;;13.70;99.90;;;;;;5052703;28;20111;-54
2022/05/28 11:09:20;;;;;;;8.73;2.08;;;13.50;99.90;;;;;;5034547;28;20067;-53
2022/05/28 11:11:54;;;;;;;9.52;2.40;;;13.50;99.90;;;;;;5051855;28;20044;-54
2022/05/28 11:14:47;;;;;;;11.75;2.40;;;13.40;99.90;;;;;;5045445;28;20020;-52
2022/05/28 11:17:28;;;;;;;6.30;1.50;;;13.00;99.90;;;;;;5052597;28;20112;-47
2022/05/28 11:20:22;;;;;;;7.40;2.40;;;12.70;99.90;;;;;;5034005;28;20031;-48
2022/05/28 11:22:51;;;;;;;14.50;2.83;;;12.30;99.90;;;;;;5045526;28;20040;-51
2022/05/28 11:25:32;;;;;;;12.32;2.42;;;12.30;99.90;;;;;;5046605;28;20087;-51
2022/05/28 11:28:03;;;;;;;9.52;1.95;;;12.40;99.90;;;;;;5050068;28;20048;-48
2022/05/28 11:30:45;;;;;;;9.15;2.65;;;12.40;99.90;;;;;;5034267;28;20026;-51
2022/05/28 11:33:22;;;;;;;9.23;2.22;;;12.50;99.90;;;;;;5034331;28;20093;-49
2022/05/28 11:35:52;;;;;;;9.05;3.15;;;12.80;99.90;;;;;;5052079;28;20025;-47
2022/05/28 11:38:25;;;;;;;13.60;2.75;;;13.00;99.90;;;;;;5044614;28;20025;-48
2022/05/28 11:41:03;;;;;;;5.45;2.15;;;13.10;99.90;;;;;;5052077;28;20056;-47
2022/05/28 11:43:33;;;;;;;8.65;2.55;;;13.30;99.90;;;;;;5034082;28;20398;-48
2022/05/28 11:46:28;;;;;;;9.55;2.38;;;13.50;99.90;;;;;;5051834;28;20611;-51
2022/05/28 11:52:03;;;;;;;6.85;2.17;;;14.20;99.90;;;;;;5048453;28;20077;-46
2022/05/28 11:54:34;;;;;;;9.48;2.35;;;14.60;99.90;;;;;;5048246;28;20028;-47
2022/05/28 11:57:03;;;;;;;10.68;2.53;;;14.60;99.90;;;;;;5051995;28;20048;-47
2022/05/28 11:59:31;;;;;;;9.07;2.25;;;14.40;99.90;;;;;;5051927;28;20021;-49
2022/05/28 12:01:59;;;;;;;5.18;1.90;;;14.30;99.90;;;;;;5051504;28;20040;-48
2022/05/28 12:04:26;;;;;;;9.52;2.58;;;14.30;99.90;;;;;;5051688;28;20463;-49
2022/05/28 12:07:11;;;;;;;7.25;2.75;;;14.30;99.90;;;;;;5033430;28;20021;-48
2022/05/28 12:09:44;;;;;;;9.93;2.00;;;14.20;99.90;;;;;;5051813;28;20025;-49
2022/05/28 12:12:38;;;;;;;6.00;1.42;;;14.20;99.90;;;;;;5050650;28;20108;-48
2022/05/28 12:15:15;;;;;;;8.82;2.63;;;14.10;99.90;;;;;;5051418;28;20130;-51
2022/05/28 12:17:53;;;;;;;9.00;2.60;;;14.00;99.90;;;;;;5046983;28;20071;-49
2022/05/28 12:20:31;;;;;;;8.68;1.70;;;14.00;99.90;;;;;;5018533;28;20028;-48
2022/05/28 12:23:00;;;;;;;8.02;2.50;;;14.00;99.90;;;;;;5034395;28;20104;-48
2022/05/28 12:25:29;;;;;;;8.63;1.45;;;14.10;99.90;;;;;;5033277;28;20056;-47
2022/05/28 12:27:54;;;;;;;8.40;2.08;;;14.00;99.90;;;;;;5032919;28;20021;-53
2022/05/28 12:30:43;;;;;;;5.18;1.92;;;14.00;99.90;;;;;;5051195;28;20029;-45
2022/05/28 12:33:28;;;;;;;7.03;1.58;;;13.90;99.90;;;;;;5050076;28;20538;-49
2022/05/28 12:36:19;;;;;;;2.67;1.00;;;13.90;99.90;;;;;;5051036;28;20482;-48
2022/05/28 12:38:58;;;;;;;6.88;1.30;;;13.80;99.90;;;;;;5033266;28;20569;-51
2022/05/28 12:41:28;;;;;;;6.88;1.85;;;13.60;99.90;;;;;;5043819;28;20063;-51
2022/05/28 12:44:15;;;;;;;7.80;1.95;;;13.40;99.90;;;;;;5050671;28;20100;-49
2022/05/28 12:46:49;;;;;;;9.70;1.77;;;13.30;99.90;;;;;;5046201;28;20500;-48
2022/05/28 12:49:51;;;;;;;6.38;2.13;;;13.30;99.90;;;;;;5045138;28;20025;-48
2022/05/28 12:52:28;;;;;;;6.65;1.75;;;13.50;99.90;;;;;;5042565;28;20450;-49
2022/05/28 12:55:16;;;;;;;11.15;2.25;;;13.50;99.90;;;;;;5050511;28;20132;-49
2022/05/28 12:57:41;;;;;;;4.93;1.98;;;13.60;99.90;;;;;;5050618;28;20029;-49
2022/05/28 13:00:22;;;;;;;8.25;2.53;;;13.70;99.90;;;;;;5050497;28;20090;-48
2022/05/28 13:02:50;;;;;;;10.82;2.25;;;13.70;99.90;;;;;;5050385;28;20094;-52
2022/05/28 13:05:24;;;;;;;6.10;1.67;;;13.70;99.90;;;;;;5047757;28;20088;-50
2022/05/28 13:07:57;;;;;;;6.03;2.20;;;13.50;99.90;;;;;;5050619;28;20531;-49
2022/05/28 13:10:25;;;;;;;6.95;2.47;;;13.50;99.90;;;;;;5050666;28;20027;-53
2022/05/28 13:13:14;;;;;;;4.93;1.63;;;13.50;99.90;;;;;;5050188;28;20017;-50
2022/05/28 13:15:57;;;;;;;5.30;1.85;;;13.50;99.90;;;;;;5032357;28;20016;-48
2022/05/28 13:18:42;;;;;;;9.38;1.48;;;13.50;99.90;;;;;;5025793;28;20017;-49
2022/05/28 13:21:35;;;;;;;7.00;1.83;;;13.30;99.90;;;;;;5048896;28;20029;-52
2022/05/28 13:24:13;;;;;;;8.40;1.73;;;13.10;99.90;;;;;;5050105;28;20510;-48
2022/05/28 13:27:00;;;;;;;6.10;1.63;;;13.00;99.90;;;;;;5032402;28;20021;-48
2022/05/28 13:29:49;;;;;;;5.40;1.50;;;12.80;99.90;;;;;;5043638;28;20024;-49
2022/05/28 13:32:30;;;;;;;7.03;1.77;;;12.70;99.90;;;;;;5044372;28;20083;-52
2022/05/28 13:35:00;;;;;;;11.35;3.00;;;12.60;99.90;;;;;;5050107;28;20025;-49
2022/05/28 13:37:26;;;;;;;7.43;2.75;;;12.50;99.90;;;;;;5031965;28;20025;-49
2022/05/28 13:39:52;;;;;;;6.07;1.75;;;12.30;99.90;;;;;;5050067;28;20029;-49
2022/05/28 13:42:19;;;;;;;11.75;2.47;;;12.20;99.90;;;;;;5049684;28;20025;-50
2022/05/28 13:44:47;;;;;;;8.43;1.70;;;12.00;99.90;;;;;;5045838;28;20029;-52
2022/05/28 13:47:16;;;;;;;6.85;2.40;;;12.00;99.90;;;;;;5050032;28;20027;-49
2022/05/28 13:49:49;;;;;;;9.63;2.83;;;11.90;99.90;;;;;;5049839;28;20420;-50
2022/05/28 13:52:17;;;;;;;8.95;2.53;;;11.80;99.90;;;;;;5023387;28;20029;-54
2022/05/28 13:55:19;;;;;;;10.63;2.40;;;11.60;99.90;;;;;;5049547;28;20495;-48
2022/05/28 13:57:47;;;;;;;9.20;2.35;;;11.50;99.90;;;;;;5029518;28;20045;-48
2022/05/28 14:00:17;;;;;;;13.27;3.00;;;11.40;99.90;;;;;;5031314;28;20060;-47
2022/05/28 14:02:59;;;;;;;11.13;2.95;;;11.30;99.90;;;;;;5049271;28;20103;-48
2022/05/28 14:05:45;;;;;;;12.23;3.70;;;11.30;99.90;;;;;;5047391;28;20560;-49
2022/05/28 14:08:20;;;;;;;8.75;2.97;;;11.30;99.90;;;;;;5049373;28;20017;-50
2022/05/28 14:10:45;;;;;;;8.45;2.88;;;11.30;99.90;;;;;;5049324;28;20091;-51
2022/05/28 14:13:23;;;;;;;13.68;3.10;;;11.30;99.90;;;;;;5049278;28;20064;-48
2022/05/28 14:15:54;;;;;;;8.77;3.15;;;11.40;99.90;;;;;;5049168;28;20039;-47
2022/05/28 14:18:25;;;;;;;10.02;3.10;;;11.40;99.90;;;;;;5049257;28;20025;-48